sensor_id;sensor_type;location;lat;lon;timestamp;temperature;humidity
29281;DHT22;25048;49.590;11.026;2023-04-24T00:01:27;9.80;99.90
29281;DHT22;25048;49.590;11.026;2023-04-24T00:03:57;9.80;99.90
29281;DHT22;25048;49.590;11.026;2023-04-24T00:06:26;9.70;99.90
29281;DHT22;25048;49.590;11.026;2023-04-24T00:08:58;9.70;99.90
29281;DHT22;25048;49.590;11.026;2023-04-24T00:11:27;9.70;99.90
29281;DHT22;25048;49.590;11.026;2023-04-24T00:13:55;9.70;99.90
29281;DHT22;25048;49.590;11.026;2023-04-24T00:16:23;9.70;99.90
29281;DHT22;25048;49.590;11.026;2023-04-24T00:18:51;9.60;99.90
29281;DHT22;25048;49.590;11.026;2023-04-24T00:21:20;9.60;99.90
29281;DHT22;25048;49.590;11.026;2023-04-24T00:23:48;9.60;99.90
29281;DHT22;25048;49.590;11.026;2023-04-24T00:26:15;9.50;99.90
29281;DHT22;25048;49.590;11.026;2023-04-24T00:28:43;9.50;99.90
29281;DHT22;25048;49.590;11.026;2023-04-24T00:31:10;9.50;99.90
29281;DHT22;25048;49.590;11.026;2023-04-24T00:33:38;9.50;99.90
29281;DHT22;25048;49.590;11.026;2023-04-24T00:36:06;9.50;99.90
29281;DHT22;25048;49.590;11.026;2023-04-24T00:38:34;9.50;99.90
29281;DHT22;25048;49.590;11.026;2023-04-24T00:41:01;9.50;99.90
29281;DHT22;25048;49.590;11.026;2023-04-24T00:43:29;9.50;99.90
29281;DHT22;25048;49.590;11.026;2023-04-24T00:45:56;9.50;99.90
29281;DHT22;25048;49.590;11.026;2023-04-24T00:48:26;9.40;99.90
29281;DHT22;25048;49.590;11.026;2023-04-24T00:50:54;9.40;99.90
29281;DHT22;25048;49.590;11.026;2023-04-24T00:53:22;9.40;99.90
29281;DHT22;25048;49.590;11.026;2023-04-24T00:55:50;9.30;99.90
29281;DHT22;25048;49.590;11.026;2023-04-24T00:58:18;9.30;99.90
29281;DHT22;25048;49.590;11.026;2023-04-24T01:00:46;9.30;99.90
29281;DHT22;25048;49.590;11.026;2023-04-24T01:03:15;9.30;99.90
29281;DHT22;25048;49.590;11.026;2023-04-24T01:05:43;9.30;99.90
29281;DHT22;25048;49.590;11.026;2023-04-24T01:08:10;9.30;99.90
29281;DHT22;25048;49.590;11.026;2023-04-24T01:10:39;9.30;99.90
29281;DHT22;25048;49.590;11.026;2023-04-24T01:13:08;9.30;99.90
29281;DHT22;25048;49.590;11.026;2023-04-24T01:15:35;9.30;99.90
29281;DHT22;25048;49.590;11.026;2023-04-24T01:18:03;9.30;99.90
29281;DHT22;25048;49.590;11.026;2023-04-24T01:20:31;9.30;99.90
29281;DHT22;25048;49.590;11.026;2023-04-24T01:22:59;9.30;99.90
29281;DHT22;25048;49.590;11.026;2023-04-24T01:25:28;9.30;99.90
29281;DHT22;25048;49.590;11.026;2023-04-24T01:27:56;9.30;99.90
29281;DHT22;25048;49.590;11.026;2023-04-24T01:30:24;9.40;99.90
29281;DHT22;25048;49.590;11.026;2023-04-24T01:32:53;9.50;99.90
29281;DHT22;25048;49.590;11.026;2023-04-24T01:35:21;9.50;99.90
29281;DHT22;25048;49.590;11.026;2023-04-24T01:37:48;9.60;99.90
29281;DHT22;25048;49.590;11.026;2023-04-24T01:40:16;9.60;99.90
29281;DHT22;25048;49.590;11.026;2023-04-24T01:42:43;9.60;99.90
29281;DHT22;25048;49.590;11.026;2023-04-24T01:45:12;9.60;99.90
29281;DHT22;25048;49.590;11.026;2023-04-24T01:47:40;9.60;99.90
29281;DHT22;25048;49.590;11.026;2023-04-24T01:50:08;9.60;99.90
29281;DHT22;25048;49.590;11.026;2023-04-24T01:52:36;9.60;99.90
29281;DHT22;25048;49.590;11.026;2023-04-24T01:55:04;9.60;99.90
29281;DHT22;25048;49.590;11.026;2023-04-24T01:57:33;9.60;99.90
29281;DHT22;25048;49.590;11.026;2023-04-24T02:00:01;9.60;99.90
29281;DHT22;25048;49.590;11.026;2023-04-24T02:02:30;9.60;99.90
29281;DHT22;25048;49.590;11.026;2023-04-24T02:04:58;9.60;99.90
29281;DHT22;25048;49.590;11.026;2023-04-24T02:07:25;9.60;99.90
29281;DHT22;25048;49.590;11.026;2023-04-24T02:09:53;9.60;99.90
29281;DHT22;25048;49.590;11.026;2023-04-24T02:12:21;9.60;99.90
29281;DHT22;25048;49.590;11.026;2023-04-24T02:14:49;9.60;99.90
29281;DHT22;25048;49.590;11.026;2023-04-24T02:17:17;9.60;99.90
29281;DHT22;25048;49.590;11.026;2023-04-24T02:19:45;9.60;99.90
29281;DHT22;25048;49.590;11.026;2023-04-24T02:22:13;9.50;99.90
29281;DHT22;25048;49.590;11.026;2023-04-24T02:24:40;9.50;99.90
29281;DHT22;25048;49.590;11.026;2023-04-24T02:27:08;9.40;99.90
29281;DHT22;25048;49.590;11.026;2023-04-24T02:29:36;9.40;99.90
29281;DHT22;25048;49.590;11.026;2023-04-24T02:32:03;9.40;99.90
29281;DHT22;25048;49.590;11.026;2023-04-24T02:34:31;9.30;99.90
29281;DHT22;25048;49.590;11.026;2023-04-24T02:36:58;9.30;99.90
29281;DHT22;25048;49.590;11.026;2023-04-24T02:39:26;9.30;99.90
29281;DHT22;25048;49.590;11.026;2023-04-24T02:41:53;9.20;99.90
29281;DHT22;25048;49.590;11.026;2023-04-24T02:44:21;9.30;99.90
29281;DHT22;25048;49.590;11.026;2023-04-24T02:46:49;9.30;99.90
29281;DHT22;25048;49.590;11.026;2023-04-24T02:49:16;9.30;99.90
29281;DHT22;25048;49.590;11.026;2023-04-24T02:51:44;9.30;99.90
29281;DHT22;25048;49.590;11.026;2023-04-24T02:54:11;9.30;99.90
29281;DHT22;25048;49.590;11.026;2023-04-24T02:56:39;9.30;99.90
29281;DHT22;25048;49.590;11.026;2023-04-24T02:59:06;9.30;99.90
29281;DHT22;25048;49.590;11.026;2023-04-24T03:01:34;9.30;99.90
29281;DHT22;25048;49.590;11.026;2023-04-24T03:04:02;9.30;99.90
29281;DHT22;25048;49.590;11.026;2023-04-24T03:06:29;9.20;99.90
29281;DHT22;25048;49.590;11.026;2023-04-24T03:08:59;9.30;99.90
29281;DHT22;25048;49.590;11.026;2023-04-24T03:11:26;9.20;99.90
29281;DHT22;25048;49.590;11.026;2023-04-24T03:13:54;9.20;99.90
29281;DHT22;25048;49.590;11.026;2023-04-24T03:16:21;9.20;99.90
29281;DHT22;25048;49.590;11.026;2023-04-24T03:18:49;9.20;99.90
29281;DHT22;25048;49.590;11.026;2023-04-24T03:21:16;9.10;99.90
29281;DHT22;25048;49.590;11.026;2023-04-24T03:23:44;9.10;99.90
29281;DHT22;25048;49.590;11.026;2023-04-24T03:26:11;9.00;99.90
29281;DHT22;25048;49.590;11.026;2023-04-24T03:28:39;9.00;99.90
29281;DHT22;25048;49.590;11.026;2023-04-24T03:31:07;9.00;99.90
29281;DHT22;25048;49.590;11.026;2023-04-24T03:33:34;9.00;99.90
29281;DHT22;25048;49.590;11.026;2023-04-24T03:36:02;9.00;99.90
29281;DHT22;25048;49.590;11.026;2023-04-24T03:38:31;9.00;99.90
29281;DHT22;25048;49.590;11.026;2023-04-24T03:40:58;9.00;99.90
29281;DHT22;25048;49.590;11.026;2023-04-24T03:43:26;9.00;99.90
29281;DHT22;25048;49.590;11.026;2023-04-24T03:45:54;9.00;99.90
29281;DHT22;25048;49.590;11.026;2023-04-24T03:48:21;8.90;99.90
29281;DHT22;25048;49.590;11.026;2023-04-24T03:50:49;8.90;99.90
29281;DHT22;25048;49.590;11.026;2023-04-24T03:53:16;8.90;99.90
29281;DHT22;25048;49.590;11.026;2023-04-24T03:55:44;8.90;99.90
29281;DHT22;25048;49.590;11.026;2023-04-24T03:58:11;8.90;99.90
29281;DHT22;25048;49.590;11.026;2023-04-24T04:00:41;8.80;99.90
29281;DHT22;25048;49.590;11.026;2023-04-24T04:03:08;8.80;99.90
29281;DHT22;25048;49.590;11.026;2023-04-24T04:05:36;8.80;99.90
29281;DHT22;25048;49.590;11.026;2023-04-24T04:08:03;8.80;99.90
29281;DHT22;25048;49.590;11.026;2023-04-24T04:10:31;8.80;99.90
29281;DHT22;25048;49.590;11.026;2023-04-24T04:12:58;8.80;99.90
29281;DHT22;25048;49.590;11.026;2023-04-24T04:15:26;8.80;99.90
29281;DHT22;25048;49.590;11.026;2023-04-24T04:17:54;8.70;99.90
29281;DHT22;25048;49.590;11.026;2023-04-24T04:20:21;8.70;99.90
29281;DHT22;25048;49.590;11.026;2023-04-24T04:22:48;8.80;99.90
29281;DHT22;25048;49.590;11.026;2023-04-24T04:25:16;8.70;99.90
29281;DHT22;25048;49.590;11.026;2023-04-24T04:27:46;8.70;99.90
29281;DHT22;25048;49.590;11.026;2023-04-24T04:30:17;8.70;99.90
29281;DHT22;25048;49.590;11.026;2023-04-24T04:32:45;8.70;99.90
29281;DHT22;25048;49.590;11.026;2023-04-24T04:35:12;8.70;99.90
29281;DHT22;25048;49.590;11.026;2023-04-24T04:37:40;8.70;99.90
29281;DHT22;25048;49.590;11.026;2023-04-24T04:40:08;8.70;99.90
29281;DHT22;25048;49.590;11.026;2023-04-24T04:42:38;8.70;99.90
29281;DHT22;25048;49.590;11.026;2023-04-24T04:45:11;8.70;99.90
29281;DHT22;25048;49.590;11.026;2023-04-24T04:47:38;8.70;99.90
29281;DHT22;25048;49.590;11.026;2023-04-24T04:50:06;8.70;99.90
29281;DHT22;25048;49.590;11.026;2023-04-24T04:52:34;8.80;99.90
29281;DHT22;25048;49.590;11.026;2023-04-24T04:55:02;8.80;99.90
29281;DHT22;25048;49.590;11.026;2023-04-24T04:57:29;8.80;99.90
29281;DHT22;25048;49.590;11.026;2023-04-24T04:59:57;8.90;99.90
29281;DHT22;25048;49.590;11.026;2023-04-24T05:02:25;8.90;99.90
29281;DHT22;25048;49.590;11.026;2023-04-24T05:04:52;8.90;99.90
29281;DHT22;25048;49.590;11.026;2023-04-24T05:07:20;8.90;99.90
29281;DHT22;25048;49.590;11.026;2023-04-24T05:09:47;9.00;99.90
29281;DHT22;25048;49.590;11.026;2023-04-24T05:12:15;9.00;99.90
29281;DHT22;25048;49.590;11.026;2023-04-24T05:14:42;9.00;99.90
29281;DHT22;25048;49.590;11.026;2023-04-24T05:17:10;9.10;99.90
29281;DHT22;25048;49.590;11.026;2023-04-24T05:19:37;9.10;99.90
29281;DHT22;25048;49.590;11.026;2023-04-24T05:22:05;9.20;99.90
29281;DHT22;25048;49.590;11.026;2023-04-24T05:24:34;9.20;99.90
29281;DHT22;25048;49.590;11.026;2023-04-24T05:27:02;9.30;99.90
29281;DHT22;25048;49.590;11.026;2023-04-24T05:29:31;9.40;99.90
29281;DHT22;25048;49.590;11.026;2023-04-24T05:32:00;9.50;99.90
29281;DHT22;25048;49.590;11.026;2023-04-24T05:34:27;9.60;99.90
29281;DHT22;25048;49.590;11.026;2023-04-24T05:36:55;9.70;99.90
29281;DHT22;25048;49.590;11.026;2023-04-24T05:39:23;9.70;99.90
29281;DHT22;25048;49.590;11.026;2023-04-24T05:41:51;9.90;99.90
29281;DHT22;25048;49.590;11.026;2023-04-24T05:44:19;10.00;99.90
29281;DHT22;25048;49.590;11.026;2023-04-24T05:46:46;10.10;99.90
29281;DHT22;25048;49.590;11.026;2023-04-24T05:49:14;10.30;99.90
29281;DHT22;25048;49.590;11.026;2023-04-24T05:51:41;10.40;99.90
29281;DHT22;25048;49.590;11.026;2023-04-24T05:54:09;10.60;99.90
29281;DHT22;25048;49.590;11.026;2023-04-24T05:56:38;10.70;99.90
29281;DHT22;25048;49.590;11.026;2023-04-24T05:59:06;10.80;99.90
29281;DHT22;25048;49.590;11.026;2023-04-24T06:01:34;10.80;99.90
29281;DHT22;25048;49.590;11.026;2023-04-24T06:04:03;11.00;99.90
29281;DHT22;25048;49.590;11.026;2023-04-24T06:06:32;11.10;99.90
29281;DHT22;25048;49.590;11.026;2023-04-24T06:08:59;11.10;99.90
29281;DHT22;25048;49.590;11.026;2023-04-24T06:11:27;11.20;99.90
29281;DHT22;25048;49.590;11.026;2023-04-24T06:13:54;11.40;99.90
29281;DHT22;25048;49.590;11.026;2023-04-24T06:16:22;11.50;99.90
29281;DHT22;25048;49.590;11.026;2023-04-24T06:18:49;11.50;99.90
29281;DHT22;25048;49.590;11.026;2023-04-24T06:21:18;11.50;99.90
29281;DHT22;25048;49.590;11.026;2023-04-24T06:23:46;11.50;99.90
29281;DHT22;25048;49.590;11.026;2023-04-24T06:26:13;11.50;99.90
29281;DHT22;25048;49.590;11.026;2023-04-24T06:28:41;11.50;99.90
29281;DHT22;25048;49.590;11.026;2023-04-24T06:31:08;11.50;99.90
29281;DHT22;25048;49.590;11.026;2023-04-24T06:33:36;11.50;99.90
29281;DHT22;25048;49.590;11.026;2023-04-24T06:36:03;11.40;99.90
29281;DHT22;25048;49.590;11.026;2023-04-24T06:38:31;11.20;99.90
29281;DHT22;25048;49.590;11.026;2023-04-24T06:40:59;11.00;99.90
29281;DHT22;25048;49.590;11.026;2023-04-24T06:43:26;10.90;99.90
29281;DHT22;25048;49.590;11.026;2023-04-24T06:45:54;10.90;99.90
29281;DHT22;25048;49.590;11.026;2023-04-24T06:48:21;10.90;99.90
29281;DHT22;25048;49.590;11.026;2023-04-24T06:50:49;11.00;99.90
29281;DHT22;25048;49.590;11.026;2023-04-24T06:53:16;11.10;99.90
29281;DHT22;25048;49.590;11.026;2023-04-24T06:55:44;11.20;99.90
29281;DHT22;25048;49.590;11.026;2023-04-24T06:58:12;11.30;99.90
29281;DHT22;25048;49.590;11.026;2023-04-24T07:00:41;11.40;99.90
29281;DHT22;25048;49.590;11.026;2023-04-24T07:03:08;11.50;99.90
29281;DHT22;25048;49.590;11.026;2023-04-24T07:05:36;11.60;99.90
29281;DHT22;25048;49.590;11.026;2023-04-24T07:08:04;11.60;99.90
29281;DHT22;25048;49.590;11.026;2023-04-24T07:10:33;11.70;99.90
29281;DHT22;25048;49.590;11.026;2023-04-24T07:13:02;11.90;99.90
29281;DHT22;25048;49.590;11.026;2023-04-24T07:15:29;12.10;99.90
29281;DHT22;25048;49.590;11.026;2023-04-24T07:17:58;12.30;99.90
29281;DHT22;25048;49.590;11.026;2023-04-24T07:20:26;12.60;99.90
29281;DHT22;25048;49.590;11.026;2023-04-24T07:22:53;12.70;99.90
29281;DHT22;25048;49.590;11.026;2023-04-24T07:25:21;12.90;99.90
29281;DHT22;25048;49.590;11.026;2023-04-24T07:27:48;12.90;99.90
29281;DHT22;25048;49.590;11.026;2023-04-24T07:30:16;12.90;99.90
29281;DHT22;25048;49.590;11.026;2023-04-24T07:32:44;12.90;99.90
29281;DHT22;25048;49.590;11.026;2023-04-24T07:35:11;12.80;99.90
29281;DHT22;25048;49.590;11.026;2023-04-24T07:37:39;12.70;99.90
29281;DHT22;25048;49.590;11.026;2023-04-24T07:40:07;12.60;99.90
29281;DHT22;25048;49.590;11.026;2023-04-24T07:42:34;12.40;99.90
29281;DHT22;25048;49.590;11.026;2023-04-24T07:45:03;12.30;99.90
29281;DHT22;25048;49.590;11.026;2023-04-24T07:47:31;12.40;99.90
29281;DHT22;25048;49.590;11.026;2023-04-24T07:49:59;12.50;99.90
29281;DHT22;25048;49.590;11.026;2023-04-24T07:52:27;12.60;99.90
29281;DHT22;25048;49.590;11.026;2023-04-24T07:54:55;12.70;99.90
29281;DHT22;25048;49.590;11.026;2023-04-24T07:57:27;12.90;99.90
29281;DHT22;25048;49.590;11.026;2023-04-24T07:59:55;13.20;99.90
29281;DHT22;25048;49.590;11.026;2023-04-24T08:02:22;13.50;99.90
29281;DHT22;25048;49.590;11.026;2023-04-24T08:04:52;13.80;99.90
29281;DHT22;25048;49.590;11.026;2023-04-24T08:07:23;14.30;99.90
29281;DHT22;25048;49.590;11.026;2023-04-24T08:09:51;14.90;99.90
29281;DHT22;25048;49.590;11.026;2023-04-24T08:12:18;15.40;99.90
29281;DHT22;25048;49.590;11.026;2023-04-24T08:14:46;15.60;99.90
29281;DHT22;25048;49.590;11.026;2023-04-24T08:17:13;15.60;99.90
29281;DHT22;25048;49.590;11.026;2023-04-24T08:19:41;15.30;99.90
29281;DHT22;25048;49.590;11.026;2023-04-24T08:22:13;15.10;99.90
29281;DHT22;25048;49.590;11.026;2023-04-24T08:24:40;14.90;99.90
29281;DHT22;25048;49.590;11.026;2023-04-24T08:27:09;14.70;99.90
29281;DHT22;25048;49.590;11.026;2023-04-24T08:29:37;14.60;99.90
29281;DHT22;25048;49.590;11.026;2023-04-24T08:32:04;14.50;99.90
29281;DHT22;25048;49.590;11.026;2023-04-24T08:34:32;14.30;99.90
29281;DHT22;25048;49.590;11.026;2023-04-24T08:37:00;14.20;99.90
29281;DHT22;25048;49.590;11.026;2023-04-24T08:39:27;14.20;99.90
29281;DHT22;25048;49.590;11.026;2023-04-24T08:41:55;14.10;99.90
29281;DHT22;25048;49.590;11.026;2023-04-24T08:44:23;13.90;99.90
29281;DHT22;25048;49.590;11.026;2023-04-24T08:46:51;13.90;99.90
29281;DHT22;25048;49.590;11.026;2023-04-24T08:49:20;14.00;99.90
29281;DHT22;25048;49.590;11.026;2023-04-24T08:51:48;14.20;99.90
29281;DHT22;25048;49.590;11.026;2023-04-24T08:54:16;14.40;99.90
29281;DHT22;25048;49.590;11.026;2023-04-24T08:56:47;14.40;99.90
29281;DHT22;25048;49.590;11.026;2023-04-24T08:59:16;14.40;99.90
29281;DHT22;25048;49.590;11.026;2023-04-24T09:01:45;14.20;99.90
29281;DHT22;25048;49.590;11.026;2023-04-24T09:04:14;14.30;99.90
29281;DHT22;25048;49.590;11.026;2023-04-24T09:06:44;14.20;99.90
29281;DHT22;25048;49.590;11.026;2023-04-24T09:09:12;14.20;99.90
29281;DHT22;25048;49.590;11.026;2023-04-24T09:11:40;14.20;99.90
29281;DHT22;25048;49.590;11.026;2023-04-24T09:14:09;14.20;99.90
29281;DHT22;25048;49.590;11.026;2023-04-24T09:16:37;14.20;99.90
29281;DHT22;25048;49.590;11.026;2023-04-24T09:19:04;14.40;99.90
29281;DHT22;25048;49.590;11.026;2023-04-24T09:21:33;14.70;99.90
29281;DHT22;25048;49.590;11.026;2023-04-24T09:24:04;15.20;99.90
29281;DHT22;25048;49.590;11.026;2023-04-24T09:26:36;15.70;99.90
29281;DHT22;25048;49.590;11.026;2023-04-24T09:29:01;15.70;99.90
29281;DHT22;25048;49.590;11.026;2023-04-24T09:31:30;15.50;99.90
29281;DHT22;25048;49.590;11.026;2023-04-24T09:34:00;15.40;99.90
29281;DHT22;25048;49.590;11.026;2023-04-24T09:36:36;15.30;99.90
29281;DHT22;25048;49.590;11.026;2023-04-24T09:39:07;15.20;99.90
29281;DHT22;25048;49.590;11.026;2023-04-24T09:41:49;15.10;99.90
29281;DHT22;25048;49.590;11.026;2023-04-24T09:44:18;15.10;99.90
29281;DHT22;25048;49.590;11.026;2023-04-24T09:46:51;15.00;99.90
29281;DHT22;25048;49.590;11.026;2023-04-24T09:49:29;15.10;99.90
29281;DHT22;25048;49.590;11.026;2023-04-24T09:52:01;15.00;99.90
29281;DHT22;25048;49.590;11.026;2023-04-24T09:54:21;14.70;99.90
29281;DHT22;25048;49.590;11.026;2023-04-24T09:56:51;14.60;99.90
29281;DHT22;25048;49.590;11.026;2023-04-24T09:59:19;14.40;99.90
29281;DHT22;25048;49.590;11.026;2023-04-24T10:01:47;14.10;99.90
29281;DHT22;25048;49.590;11.026;2023-04-24T10:04:19;14.00;99.90
29281;DHT22;25048;49.590;11.026;2023-04-24T10:06:48;14.00;99.90
29281;DHT22;25048;49.590;11.026;2023-04-24T10:09:17;14.50;99.90
29281;DHT22;25048;49.590;11.026;2023-04-24T10:11:47;15.10;99.90
29281;DHT22;25048;49.590;11.026;2023-04-24T10:14:20;15.90;99.90
29281;DHT22;25048;49.590;11.026;2023-04-24T10:16:48;16.10;99.90
29281;DHT22;25048;49.590;11.026;2023-04-24T10:19:17;15.90;99.90
29281;DHT22;25048;49.590;11.026;2023-04-24T10:21:47;15.70;99.90
29281;DHT22;25048;49.590;11.026;2023-04-24T10:24:17;15.30;99.90
29281;DHT22;25048;49.590;11.026;2023-04-24T10:26:45;14.60;99.90
29281;DHT22;25048;49.590;11.026;2023-04-24T10:29:17;14.30;99.90
29281;DHT22;25048;49.590;11.026;2023-04-24T10:31:45;14.30;99.90
29281;DHT22;25048;49.590;11.026;2023-04-24T10:34:15;14.20;99.90
29281;DHT22;25048;49.590;11.026;2023-04-24T10:36:51;14.20;99.90
29281;DHT22;25048;49.590;11.026;2023-04-24T10:39:19;14.30;99.90
29281;DHT22;25048;49.590;11.026;2023-04-24T10:41:50;14.40;99.90
29281;DHT22;25048;49.590;11.026;2023-04-24T10:44:17;14.40;99.90
29281;DHT22;25048;49.590;11.026;2023-04-24T10:46:46;14.20;99.90
29281;DHT22;25048;49.590;11.026;2023-04-24T10:49:16;14.50;99.90
29281;DHT22;25048;49.590;11.026;2023-04-24T10:54:34;14.60;99.90
29281;DHT22;25048;49.590;11.026;2023-04-24T10:57:25;14.60;99.90
29281;DHT22;25048;49.590;11.026;2023-04-24T11:00:18;14.80;99.90
29281;DHT22;25048;49.590;11.026;2023-04-24T11:02:48;15.10;99.90
29281;DHT22;25048;49.590;11.026;2023-04-24T11:05:17;15.10;99.90
29281;DHT22;25048;49.590;11.026;2023-04-24T11:08:14;15.10;99.90
29281;DHT22;25048;49.590;11.026;2023-04-24T11:10:47;14.90;99.90
29281;DHT22;25048;49.590;11.026;2023-04-24T11:13:16;15.10;99.90
29281;DHT22;25048;49.590;11.026;2023-04-24T11:15:43;15.30;99.90
29281;DHT22;25048;49.590;11.026;2023-04-24T11:18:15;15.50;99.90
29281;DHT22;25048;49.590;11.026;2023-04-24T11:20:43;15.80;99.90
29281;DHT22;25048;49.590;11.026;2023-04-24T11:23:12;16.00;99.90
29281;DHT22;25048;49.590;11.026;2023-04-24T11:25:41;16.00;99.90
29281;DHT22;25048;49.590;11.026;2023-04-24T11:28:14;16.30;99.90
29281;DHT22;25048;49.590;11.026;2023-04-24T11:30:40;16.40;99.90
29281;DHT22;25048;49.590;11.026;2023-04-24T11:33:07;16.10;99.90
29281;DHT22;25048;49.590;11.026;2023-04-24T11:35:39;15.70;99.90
29281;DHT22;25048;49.590;11.026;2023-04-24T11:38:05;15.30;99.90
29281;DHT22;25048;49.590;11.026;2023-04-24T11:40:33;15.00;99.90
29281;DHT22;25048;49.590;11.026;2023-04-24T11:43:01;14.80;99.90
29281;DHT22;25048;49.590;11.026;2023-04-24T11:45:30;14.50;99.90
29281;DHT22;25048;49.590;11.026;2023-04-24T11:47:58;14.10;99.90
29281;DHT22;25048;49.590;11.026;2023-04-24T11:50:26;13.70;99.90
29281;DHT22;25048;49.590;11.026;2023-04-24T11:52:55;13.60;99.90
29281;DHT22;25048;49.590;11.026;2023-04-24T11:55:24;13.40;99.90
29281;DHT22;25048;49.590;11.026;2023-04-24T11:57:57;13.50;99.90
29281;DHT22;25048;49.590;11.026;2023-04-24T12:00:27;13.80;99.90
29281;DHT22;25048;49.590;11.026;2023-04-24T12:03:11;14.20;99.90
29281;DHT22;25048;49.590;11.026;2023-04-24T12:05:35;14.60;99.90
29281;DHT22;25048;49.590;11.026;2023-04-24T12:08:03;15.00;99.90
29281;DHT22;25048;49.590;11.026;2023-04-24T12:10:32;15.20;99.90
29281;DHT22;25048;49.590;11.026;2023-04-24T12:13:01;15.10;99.90
29281;DHT22;25048;49.590;11.026;2023-04-24T12:15:28;15.10;99.90
29281;DHT22;25048;49.590;11.026;2023-04-24T12:17:56;15.30;99.90
29281;DHT22;25048;49.590;11.026;2023-04-24T12:20:33;15.60;99.90
29281;DHT22;25048;49.590;11.026;2023-04-24T12:22:59;15.90;99.90
29281;DHT22;25048;49.590;11.026;2023-04-24T12:25:28;16.40;99.90
29281;DHT22;25048;49.590;11.026;2023-04-24T12:30:28;16.00;99.90
29281;DHT22;25048;49.590;11.026;2023-04-24T12:32:58;15.80;99.90
29281;DHT22;25048;49.590;11.026;2023-04-24T12:35:29;15.50;99.90
29281;DHT22;25048;49.590;11.026;2023-04-24T12:38:13;15.30;99.90
29281;DHT22;25048;49.590;11.026;2023-04-24T12:40:40;15.40;99.90
29281;DHT22;25048;49.590;11.026;2023-04-24T12:43:18;15.30;99.90
29281;DHT22;25048;49.590;11.026;2023-04-24T12:45:47;15.10;99.90
29281;DHT22;25048;49.590;11.026;2023-04-24T12:48:15;14.80;99.90
29281;DHT22;25048;49.590;11.026;2023-04-24T12:50:43;14.40;99.90
29281;DHT22;25048;49.590;11.026;2023-04-24T12:53:11;14.10;99.90
29281;DHT22;25048;49.590;11.026;2023-04-24T12:55:39;13.80;99.90
29281;DHT22;25048;49.590;11.026;2023-04-24T12:58:07;13.60;99.90
29281;DHT22;25048;49.590;11.026;2023-04-24T13:00:34;13.70;99.90
29281;DHT22;25048;49.590;11.026;2023-04-24T13:03:03;13.70;99.90
29281;DHT22;25048;49.590;11.026;2023-04-24T13:05:30;13.80;99.90
29281;DHT22;25048;49.590;11.026;2023-04-24T13:07:58;14.00;99.90
29281;DHT22;25048;49.590;11.026;2023-04-24T13:10:25;14.40;99.90
29281;DHT22;25048;49.590;11.026;2023-04-24T13:12:53;15.10;99.90
29281;DHT22;25048;49.590;11.026;2023-04-24T13:15:20;16.10;99.90
29281;DHT22;25048;49.590;11.026;2023-04-24T13:17:49;16.00;99.90
29281;DHT22;25048;49.590;11.026;2023-04-24T13:20:16;15.40;99.90
29281;DHT22;25048;49.590;11.026;2023-04-24T13:22:44;14.90;99.90
29281;DHT22;25048;49.590;11.026;2023-04-24T13:25:11;14.40;99.90
29281;DHT22;25048;49.590;11.026;2023-04-24T13:27:39;14.10;99.90
29281;DHT22;25048;49.590;11.026;2023-04-24T13:30:07;14.00;99.90
29281;DHT22;25048;49.590;11.026;2023-04-24T13:32:35;13.90;99.90
29281;DHT22;25048;49.590;11.026;2023-04-24T13:35:03;13.90;99.90
29281;DHT22;25048;49.590;11.026;2023-04-24T13:37:31;13.80;99.90
29281;DHT22;25048;49.590;11.026;2023-04-24T13:39:59;13.90;99.90
29281;DHT22;25048;49.590;11.026;2023-04-24T13:42:31;14.10;99.90
29281;DHT22;25048;49.590;11.026;2023-04-24T13:45:04;14.40;99.90
29281;DHT22;25048;49.590;11.026;2023-04-24T13:47:39;15.10;99.90
29281;DHT22;25048;49.590;11.026;2023-04-24T13:50:09;17.20;99.90
29281;DHT22;25048;49.590;11.026;2023-04-24T13:52:42;19.60;97.50
29281;DHT22;25048;49.590;11.026;2023-04-24T13:55:10;20.30;96.30
29281;DHT22;25048;49.590;11.026;2023-04-24T13:57:47;21.20;93.10
29281;DHT22;25048;49.590;11.026;2023-04-24T14:00:18;22.00;91.20
29281;DHT22;25048;49.590;11.026;2023-04-24T14:02:50;22.50;86.10
29281;DHT22;25048;49.590;11.026;2023-04-24T14:05:19;23.00;82.00
29281;DHT22;25048;49.590;11.026;2023-04-24T14:07:52;23.50;75.90
29281;DHT22;25048;49.590;11.026;2023-04-24T14:10:28;23.20;74.50
29281;DHT22;25048;49.590;11.026;2023-04-24T14:12:58;21.30;76.10
29281;DHT22;25048;49.590;11.026;2023-04-24T14:15:38;21.10;79.10
29281;DHT22;25048;49.590;11.026;2023-04-24T14:18:24;22.60;78.20
29281;DHT22;25048;49.590;11.026;2023-04-24T14:20:53;22.50;74.70
29281;DHT22;25048;49.590;11.026;2023-04-24T14:23:23;22.80;77.60
29281;DHT22;25048;49.590;11.026;2023-04-24T14:25:53;22.70;73.70
29281;DHT22;25048;49.590;11.026;2023-04-24T14:28:24;21.40;75.10
29281;DHT22;25048;49.590;11.026;2023-04-24T14:30:55;19.60;79.40
29281;DHT22;25048;49.590;11.026;2023-04-24T14:33:24;18.60;83.00
29281;DHT22;25048;49.590;11.026;2023-04-24T14:35:54;17.40;86.00
29281;DHT22;25048;49.590;11.026;2023-04-24T14:38:22;16.40;89.70
29281;DHT22;25048;49.590;11.026;2023-04-24T14:40:59;15.50;91.60
29281;DHT22;25048;49.590;11.026;2023-04-24T14:43:26;15.00;93.20
29281;DHT22;25048;49.590;11.026;2023-04-24T14:45:57;14.50;95.00
29281;DHT22;25048;49.590;11.026;2023-04-24T14:48:29;14.20;95.80
29281;DHT22;25048;49.590;11.026;2023-04-24T14:51:01;14.20;96.00
29281;DHT22;25048;49.590;11.026;2023-04-24T14:53:32;14.20;95.30
29281;DHT22;25048;49.590;11.026;2023-04-24T14:56:02;14.30;95.30
29281;DHT22;25048;49.590;11.026;2023-04-24T14:58:30;14.40;95.00
29281;DHT22;25048;49.590;11.026;2023-04-24T15:00:57;14.80;94.50
29281;DHT22;25048;49.590;11.026;2023-04-24T15:03:25;15.50;95.60
29281;DHT22;25048;49.590;11.026;2023-04-24T15:05:53;17.00;92.70
29281;DHT22;25048;49.590;11.026;2023-04-24T15:08:21;18.20;90.00
29281;DHT22;25048;49.590;11.026;2023-04-24T15:10:48;19.50;89.70
29281;DHT22;25048;49.590;11.026;2023-04-24T15:13:16;21.60;83.50
29281;DHT22;25048;49.590;11.026;2023-04-24T15:15:43;23.50;74.10
29281;DHT22;25048;49.590;11.026;2023-04-24T15:18:13;23.20;70.90
29281;DHT22;25048;49.590;11.026;2023-04-24T15:20:40;24.10;70.80
29281;DHT22;25048;49.590;11.026;2023-04-24T15:23:10;24.60;67.90
29281;DHT22;25048;49.590;11.026;2023-04-24T15:25:38;22.50;68.90
29281;DHT22;25048;49.590;11.026;2023-04-24T15:28:05;20.40;73.40
29281;DHT22;25048;49.590;11.026;2023-04-24T15:30:33;18.40;78.40
29281;DHT22;25048;49.590;11.026;2023-04-24T15:33:01;17.10;81.60
29281;DHT22;25048;49.590;11.026;2023-04-24T15:35:29;16.20;86.80
29281;DHT22;25048;49.590;11.026;2023-04-24T15:37:56;15.30;89.00